Portada
METAR-TAF:

METAR-TAF

Aeroports :

Kosrae, Micronèsia

latitud: 05-21N, longitud: 162-57E, altitud: 3 m

Observació

L'informe es va fer fa 8 hores i 13 minuts, a les 23:50 UTC
Vent 8 kt del Nord/Nord-Est
Temperatura 30°C
Humitat 70%
Pressió 1008 hPa
Visibilitat: 16.1 km
Núvols disperses a una alçada de 2200 ft
Cel ennuvolat a una alçada de 30000 ft

METAR: PTSA 172350Z COR 03008KT 10SM SCT022 BKN300 30/24 A2977 RMK LAST

Hora: 19:03 (08:03 UTC)

Pronòstic

L'informe es va fer fa 8 hores i 38 minuts, a les 23:25 UTC
Pronòstic vàlid del 18 a les 00 UTC al 18 a les 24 UTC
Vent 11 kt del Est/Nord-Est
Visibilitat: 10 km
Núvols disperses a una alçada de 2100 ft

TAF: PTSA 172325Z 1800/1824 06011KT P6SM SCT021

Observacions i pronòstics meteorològics de més de 4000 aeroports (METAR i TAF).

Les estacions disponibles són els punts grocs i vermells al mapa.

Posi el ratolí al punt desitjat per veure el nom de l'estació.

Feu clic per veure les observacions i els pronòstics meteorològics.

Per canviar el mapa: feu clic els botons verds amb una creu de color negre per apropar; al botó verd amb un guió per allunyar la imatge; o en les fletxes verdes per a mapes adjacents.


METAR-TAF: